createdAt,value
2023-01-07T00:01:01.985Z,10.73
2023-01-07T00:03:29.163Z,10.75
2023-01-07T00:06:02.840Z,10.77
2023-01-07T00:08:31.399Z,10.78
2023-01-07T00:11:01.664Z,10.90
2023-01-07T00:13:28.243Z,10.91
2023-01-07T00:16:15.955Z,10.92
2023-01-07T00:18:43.711Z,10.94
2023-01-07T00:21:13.035Z,10.95
2023-01-07T00:23:40.811Z,10.94
2023-01-07T00:26:13.344Z,10.89
2023-01-07T00:28:41.525Z,10.88
2023-01-07T00:31:11.667Z,10.82
2023-01-07T00:33:51.832Z,10.81
2023-01-07T00:36:19.569Z,10.83
2023-01-07T00:38:46.350Z,10.79
2023-01-07T00:41:12.899Z,10.71
2023-01-07T00:43:39.540Z,10.71
2023-01-07T00:46:06.296Z,10.71
2023-01-07T00:48:32.801Z,10.65
2023-01-07T00:50:59.268Z,10.65
2023-01-07T00:53:28.107Z,10.61
2023-01-07T00:55:54.625Z,10.55
2023-01-07T00:58:23.955Z,10.49
2023-01-07T01:00:54.998Z,10.42
2023-01-07T01:03:21.661Z,10.37
2023-01-07T01:05:48.339Z,10.34
2023-01-07T01:08:14.889Z,10.33
2023-01-07T01:10:41.619Z,10.27
2023-01-07T01:13:13.028Z,10.25
2023-01-07T01:15:43.531Z,10.25
2023-01-07T01:18:10.329Z,10.23
2023-01-07T01:20:37.173Z,10.22
2023-01-07T01:23:04.215Z,10.25
2023-01-07T01:25:30.946Z,10.21
2023-01-07T01:27:57.473Z,10.21
2023-01-07T01:30:24.121Z,10.20
2023-01-07T01:32:50.596Z,10.18
2023-01-07T01:35:17.397Z,10.20
2023-01-07T01:37:43.946Z,10.18
2023-01-07T01:40:11.567Z,10.23
2023-01-07T01:42:38.081Z,10.26
2023-01-07T01:45:05.661Z,10.23
2023-01-07T01:47:50.123Z,10.26
2023-01-07T01:50:29.995Z,10.26
2023-01-07T01:53:06.164Z,10.32
2023-01-07T01:55:37.816Z,10.28
2023-01-07T01:58:09.791Z,10.26
2023-01-07T02:00:37.319Z,10.17
2023-01-07T02:03:08.553Z,10.24
2023-01-07T02:05:40.590Z,10.20
2023-01-07T02:08:08.142Z,10.25
2023-01-07T02:10:35.232Z,10.23
2023-01-07T02:13:25.801Z,10.23
2023-01-07T02:15:54.997Z,10.22
2023-01-07T02:18:28.865Z,10.19
2023-01-07T02:21:06.591Z,10.22
2023-01-07T02:24:00.800Z,10.22
2023-01-07T02:26:42.685Z,10.16
2023-01-07T02:29:27.917Z,10.17
2023-01-07T02:32:09.462Z,10.15
2023-01-07T02:34:54.128Z,10.17
2023-01-07T02:37:29.988Z,10.08
2023-01-07T02:40:35.541Z,10.16
2023-01-07T02:43:22.103Z,10.18
2023-01-07T02:46:27.082Z,10.19
2023-01-07T02:48:53.883Z,10.23
2023-01-07T02:51:20.413Z,10.22
2023-01-07T02:53:48.463Z,10.23
2023-01-07T02:56:35.889Z,10.23
2023-01-07T02:59:13.979Z,10.28
2023-01-07T03:02:15.376Z,10.29
2023-01-07T03:05:23.184Z,10.33
2023-01-07T03:08:25.004Z,10.38
2023-01-07T03:11:08.315Z,10.42
2023-01-07T03:13:50.238Z,10.43
2023-01-07T03:16:31.338Z,10.47
2023-01-07T03:19:23.023Z,10.53
2023-01-07T03:21:52.412Z,10.50
2023-01-07T03:24:20.164Z,10.55
2023-01-07T03:26:51.906Z,10.50
2023-01-07T03:29:19.991Z,10.49
2023-01-07T03:32:11.618Z,10.51
2023-01-07T03:34:39.407Z,10.47
2023-01-07T03:37:12.137Z,10.42
2023-01-07T03:39:40.560Z,10.42
2023-01-07T03:42:27.330Z,10.39
2023-01-07T03:44:54.709Z,10.36
2023-01-07T03:47:21.390Z,10.35
2023-01-07T03:49:48.232Z,10.39
2023-01-07T03:52:14.782Z,10.41
2023-01-07T03:54:41.499Z,10.45
2023-01-07T03:57:08.228Z,10.40
2023-01-07T03:59:34.937Z,10.41
2023-01-07T04:02:01.763Z,10.40
2023-01-07T04:04:28.557Z,10.37
2023-01-07T04:06:55.253Z,10.39
2023-01-07T04:09:22.135Z,10.34
2023-01-07T04:11:48.661Z,10.39
2023-01-07T04:14:15.144Z,10.42
2023-01-07T04:16:41.671Z,10.37
2023-01-07T04:19:08.580Z,10.38
2023-01-07T04:21:35.071Z,10.36
2023-01-07T04:24:01.527Z,10.32
2023-01-07T04:26:29.316Z,10.37
2023-01-07T04:28:55.880Z,10.34
2023-01-07T04:31:22.446Z,10.33
2023-01-07T04:33:48.951Z,10.30
2023-01-07T04:36:15.523Z,10.25
2023-01-07T04:38:42.100Z,10.25
2023-01-07T04:41:08.569Z,10.20
2023-01-07T04:43:36.237Z,10.16
2023-01-07T04:46:03.798Z,10.13
2023-01-07T04:48:31.048Z,10.06
2023-01-07T04:50:57.620Z,10.08
2023-01-07T04:53:24.248Z,10.05
2023-01-07T04:55:51.818Z,10.04
2023-01-07T04:58:18.342Z,10.04
2023-01-07T05:00:45.441Z,9.99
2023-01-07T05:03:12.521Z,9.97
2023-01-07T05:05:39.015Z,9.98
2023-01-07T05:08:05.563Z,9.94
2023-01-07T05:10:33.060Z,9.94
2023-01-07T05:12:59.613Z,9.91
2023-01-07T05:15:26.249Z,9.98
2023-01-07T05:17:52.746Z,10.01
2023-01-07T05:20:19.363Z,10.04
2023-01-07T05:22:46.645Z,9.99
2023-01-07T05:25:13.124Z,9.95
2023-01-07T05:27:41.921Z,9.87
2023-01-07T05:30:08.912Z,9.91
2023-01-07T05:32:35.437Z,9.92
2023-01-07T05:35:02.275Z,9.99
2023-01-07T05:37:28.767Z,10.06
2023-01-07T05:39:55.412Z,10.12
2023-01-07T05:42:21.913Z,10.22
2023-01-07T05:44:48.413Z,10.23
2023-01-07T05:47:14.947Z,10.26
2023-01-07T05:49:41.501Z,10.32
2023-01-07T05:52:08.189Z,10.28
2023-01-07T05:54:34.746Z,10.35
2023-01-07T05:57:01.192Z,10.40
2023-01-07T05:59:27.684Z,10.37
2023-01-07T06:01:54.192Z,10.37
2023-01-07T06:04:20.738Z,10.40
2023-01-07T06:06:47.311Z,10.38
2023-01-07T06:09:13.887Z,10.40
2023-01-07T06:11:40.382Z,10.36
2023-01-07T06:14:06.854Z,10.37
2023-01-07T06:16:33.344Z,10.37
2023-01-07T06:18:59.965Z,10.45
2023-01-07T06:21:26.577Z,10.41
2023-01-07T06:23:53.085Z,10.40
2023-01-07T06:26:19.713Z,10.44
2023-01-07T06:28:46.444Z,10.44
2023-01-07T06:31:12.970Z,10.39
2023-01-07T06:33:40.779Z,10.33
2023-01-07T06:36:08.357Z,10.36
2023-01-07T06:38:35.025Z,10.35
2023-01-07T06:41:02.345Z,10.36
2023-01-07T06:43:29.581Z,10.42
2023-01-07T06:45:56.479Z,10.39
2023-01-07T06:48:23.101Z,10.36
2023-01-07T06:50:49.649Z,10.42
2023-01-07T06:53:16.645Z,10.40
2023-01-07T06:55:49.097Z,10.38
2023-01-07T06:58:16.785Z,10.32
2023-01-07T07:00:43.406Z,10.33
2023-01-07T07:03:10.092Z,10.27
2023-01-07T07:05:36.832Z,10.26
2023-01-07T07:08:04.459Z,10.29
2023-01-07T07:10:30.930Z,10.29
2023-01-07T07:12:57.474Z,10.30
2023-01-07T07:15:23.958Z,10.35
2023-01-07T07:17:50.579Z,10.37
2023-01-07T07:20:17.127Z,10.38
2023-01-07T07:22:47.407Z,10.43
2023-01-07T07:25:15.066Z,10.45
2023-01-07T07:27:45.313Z,10.41
2023-01-07T07:30:12.900Z,10.45
2023-01-07T07:32:39.392Z,10.41
2023-01-07T07:35:06.218Z,10.37
2023-01-07T07:37:32.768Z,10.35
2023-01-07T07:39:59.262Z,10.32
2023-01-07T07:42:25.715Z,10.30
2023-01-07T07:44:52.184Z,10.38
2023-01-07T07:47:18.972Z,10.45
2023-01-07T07:49:45.631Z,10.40
2023-01-07T07:52:12.205Z,10.38
2023-01-07T07:54:38.713Z,10.40
2023-01-07T07:57:05.372Z,10.41
2023-01-07T07:59:31.903Z,10.39
2023-01-07T08:02:05.761Z,10.40
2023-01-07T08:04:34.484Z,10.45
2023-01-07T08:07:01.632Z,10.38
2023-01-07T08:09:28.114Z,10.41
2023-01-07T08:11:54.787Z,10.45
2023-01-07T08:14:21.335Z,10.47
2023-01-07T08:16:47.820Z,10.48
2023-01-07T08:19:15.248Z,10.44
2023-01-07T08:21:41.760Z,10.43
2023-01-07T08:24:08.648Z,10.45
2023-01-07T08:26:35.502Z,10.48
2023-01-07T08:29:02.032Z,10.49
2023-01-07T08:31:28.749Z,10.51
2023-01-07T08:33:55.316Z,10.52
2023-01-07T08:36:23.408Z,10.50
2023-01-07T08:38:51.766Z,10.49
2023-01-07T08:41:18.740Z,10.46
2023-01-07T08:43:45.371Z,10.43
2023-01-07T08:46:11.822Z,10.47
2023-01-07T08:48:40.209Z,10.51
2023-01-07T08:51:07.524Z,10.48
2023-01-07T08:53:34.818Z,10.52
2023-01-07T08:56:01.415Z,10.52
2023-01-07T08:58:27.951Z,10.54
2023-01-07T09:00:54.603Z,10.52
2023-01-07T09:03:21.626Z,10.59
2023-01-07T09:05:48.131Z,10.62
2023-01-07T09:08:14.614Z,10.62
2023-01-07T09:10:41.085Z,10.69
2023-01-07T09:13:07.978Z,10.74
2023-01-07T09:15:34.515Z,10.82
2023-01-07T09:18:03.640Z,10.83
2023-01-07T09:20:30.921Z,10.85
2023-01-07T09:22:57.672Z,10.89
2023-01-07T09:25:24.543Z,10.93
2023-01-07T09:27:51.105Z,10.93
2023-01-07T09:30:18.087Z,11.01
2023-01-07T09:32:44.647Z,10.99
2023-01-07T09:35:12.017Z,11.09
2023-01-07T09:37:38.658Z,11.10
2023-01-07T09:40:06.705Z,11.12
2023-01-07T09:42:45.469Z,11.10
2023-01-07T09:45:17.965Z,11.09
2023-01-07T09:47:49.765Z,11.10
2023-01-07T09:50:56.699Z,11.13
2023-01-07T09:53:35.976Z,11.23
2023-01-07T09:56:10.542Z,11.32
2023-01-07T09:58:41.892Z,11.49
2023-01-07T10:01:28.009Z,11.66
2023-01-07T10:04:13.154Z,11.70
2023-01-07T10:07:03.312Z,11.63
2023-01-07T10:09:35.618Z,11.72
2023-01-07T10:12:20.524Z,11.72
2023-01-07T10:15:10.608Z,11.63
2023-01-07T10:17:55.598Z,11.56
2023-01-07T10:20:50.066Z,11.46
2023-01-07T10:23:24.038Z,11.39
2023-01-07T10:25:53.787Z,11.55
2023-01-07T10:28:32.377Z,11.70
2023-01-07T10:31:01.336Z,11.69
2023-01-07T10:33:31.615Z,11.76
2023-01-07T10:36:22.241Z,11.69
2023-01-07T10:39:28.849Z,11.66
2023-01-07T10:42:05.810Z,11.78
2023-01-07T10:44:56.029Z,11.90
2023-01-07T10:47:31.239Z,12.13
2023-01-07T10:50:00.441Z,12.15
2023-01-07T10:52:49.401Z,12.25
2023-01-07T10:55:41.645Z,12.03
2023-01-07T10:58:12.187Z,12.14
2023-01-07T11:00:42.173Z,12.05
2023-01-07T11:03:29.090Z,11.94
2023-01-07T11:06:00.087Z,11.78
2023-01-07T11:08:37.025Z,11.58
2023-01-07T11:11:04.331Z,11.48
2023-01-07T11:13:34.740Z,11.42
2023-01-07T11:16:33.494Z,11.37
2023-01-07T11:19:12.447Z,11.36
2023-01-07T11:21:44.740Z,11.61
2023-01-07T11:24:33.820Z,11.78
2023-01-07T11:27:19.397Z,11.63
2023-01-07T11:30:07.537Z,11.52
2023-01-07T11:32:38.633Z,11.45
2023-01-07T11:35:15.766Z,11.46
2023-01-07T11:37:45.763Z,11.34
2023-01-07T11:40:16.193Z,11.32
2023-01-07T11:42:48.690Z,11.29
2023-01-07T11:45:19.884Z,11.30
2023-01-07T11:47:49.630Z,11.52
2023-01-07T11:50:27.002Z,11.71
2023-01-07T11:53:02.968Z,11.83
2023-01-07T11:55:31.399Z,11.65
2023-01-07T11:58:28.069Z,11.88
2023-01-07T12:00:45.040Z,11.98
2023-01-07T12:03:16.032Z,11.95
2023-01-07T12:05:46.155Z,11.86
2023-01-07T12:08:21.171Z,11.86
2023-01-07T12:10:55.681Z,11.99
2023-01-07T12:13:27.949Z,11.99
2023-01-07T12:16:07.419Z,11.84
2023-01-07T12:18:40.414Z,11.74
2023-01-07T12:21:32.635Z,11.58
2023-01-07T12:24:20.885Z,11.56
2023-01-07T12:26:58.501Z,11.51
2023-01-07T12:29:50.965Z,11.53
2023-01-07T12:32:51.593Z,11.45
2023-01-07T12:35:41.959Z,11.47
2023-01-07T12:38:33.909Z,11.57
2023-01-07T12:41:10.819Z,11.56
2023-01-07T12:44:24.368Z,11.50
2023-01-07T12:47:31.025Z,11.53
2023-01-07T12:50:05.190Z,11.43
2023-01-07T12:52:47.392Z,11.42
2023-01-07T12:55:21.436Z,11.39
2023-01-07T12:58:15.555Z,11.37
2023-01-07T13:01:22.328Z,11.30
2023-01-07T13:04:08.295Z,11.40
2023-01-07T13:06:42.789Z,11.47
2023-01-07T13:09:21.147Z,11.46
2023-01-07T13:12:40.868Z,11.48
2023-01-07T13:15:11.506Z,11.53
2023-01-07T13:17:38.299Z,11.51
2023-01-07T13:20:11.388Z,11.47
2023-01-07T13:22:48.803Z,11.51
2023-01-07T13:25:47.550Z,11.53
2023-01-07T13:28:32.120Z,11.51
2023-01-07T13:31:13.668Z,11.55
2023-01-07T13:33:46.684Z,11.58
2023-01-07T13:36:33.704Z,11.63
2023-01-07T13:39:15.075Z,11.67
2023-01-07T13:41:50.898Z,11.67
2023-01-07T13:44:35.546Z,11.75
2023-01-07T13:47:05.152Z,11.76
2023-01-07T13:49:35.685Z,11.75
2023-01-07T13:52:13.649Z,11.70
2023-01-07T13:54:49.268Z,11.68
2023-01-07T13:57:24.712Z,11.65
2023-01-07T13:59:54.633Z,11.60
2023-01-07T14:02:21.215Z,11.54
2023-01-07T14:05:04.700Z,11.48
2023-01-07T14:07:32.600Z,11.48
2023-01-07T14:09:59.175Z,11.48
2023-01-07T14:13:27.284Z,11.48
2023-01-07T14:16:21.123Z,11.46
2023-01-07T14:19:30.024Z,11.40
2023-01-07T14:22:18.664Z,11.38
2023-01-07T14:25:11.774Z,11.39
2023-01-07T14:27:57.364Z,11.35
2023-01-07T14:30:35.081Z,11.26
2023-01-07T14:33:06.392Z,11.20
2023-01-07T14:35:37.503Z,11.19
2023-01-07T14:38:31.754Z,11.15
2023-01-07T14:41:03.623Z,10.96
2023-01-07T14:43:42.272Z,10.98
2023-01-07T14:46:23.808Z,10.94
2023-01-07T14:49:11.817Z,10.94
2023-01-07T14:52:15.593Z,10.98
2023-01-07T14:54:57.000Z,10.95
2023-01-07T14:57:47.914Z,10.90
2023-01-07T15:00:45.683Z,10.82
2023-01-07T15:03:14.937Z,10.64
2023-01-07T15:06:10.994Z,10.35
2023-01-07T15:09:08.189Z,10.03
2023-01-07T15:11:55.264Z,9.74
2023-01-07T15:14:49.359Z,9.39
2023-01-07T15:17:16.608Z,9.22
2023-01-07T15:19:44.300Z,9.15
2023-01-07T15:22:24.100Z,9.13
2023-01-07T15:24:57.326Z,9.18
2023-01-07T15:27:39.593Z,9.30
2023-01-07T15:30:33.110Z,9.43
2023-01-07T15:33:28.611Z,9.68
2023-01-07T15:35:57.507Z,9.89
2023-01-07T15:38:44.664Z,10.02
2023-01-07T15:41:40.415Z,10.04
2023-01-07T15:44:16.619Z,9.86
2023-01-07T15:46:43.489Z,9.70
2023-01-07T15:49:09.897Z,9.60
2023-01-07T15:51:41.364Z,9.40
2023-01-07T15:54:36.566Z,9.39
2023-01-07T15:57:06.655Z,9.25
2023-01-07T15:59:36.652Z,9.15
2023-01-07T16:02:18.798Z,9.16
2023-01-07T16:04:48.752Z,9.18
2023-01-07T16:07:29.482Z,9.24
2023-01-07T16:09:59.765Z,9.34
2023-01-07T16:12:26.530Z,9.41
2023-01-07T16:14:53.141Z,9.45
2023-01-07T16:17:22.109Z,9.42
2023-01-07T16:19:48.710Z,9.31
2023-01-07T16:22:21.726Z,9.21
2023-01-07T16:24:51.003Z,9.10
2023-01-07T16:27:23.786Z,9.09
2023-01-07T16:29:54.675Z,9.00
2023-01-07T16:32:23.077Z,8.95
2023-01-07T16:34:57.069Z,8.96
2023-01-07T16:37:24.491Z,8.93
2023-01-07T16:39:52.772Z,8.84
2023-01-07T16:42:24.424Z,8.82
2023-01-07T16:44:50.846Z,8.82
2023-01-07T16:47:22.860Z,8.83
2023-01-07T16:49:54.332Z,8.81
2023-01-07T16:52:23.049Z,8.77
2023-01-07T16:54:50.297Z,8.75
2023-01-07T16:57:30.603Z,8.73
2023-01-07T16:59:59.597Z,8.78
2023-01-07T17:02:52.789Z,8.88
2023-01-07T17:05:29.432Z,8.89
2023-01-07T17:07:59.949Z,8.94
2023-01-07T17:10:28.112Z,8.99
2023-01-07T17:13:01.389Z,8.99
2023-01-07T17:15:33.065Z,9.01
2023-01-07T17:18:11.560Z,9.05
2023-01-07T17:20:53.387Z,9.06
2023-01-07T17:23:45.499Z,9.11
2023-01-07T17:26:20.470Z,9.12
2023-01-07T17:28:50.628Z,9.07
2023-01-07T17:31:17.249Z,9.03
2023-01-07T17:33:44.162Z,9.06
2023-01-07T17:36:20.002Z,9.07
2023-01-07T17:38:51.429Z,9.10
2023-01-07T17:41:41.516Z,9.13
2023-01-07T17:44:12.944Z,9.05
2023-01-07T17:46:40.536Z,9.13
2023-01-07T17:49:08.808Z,9.07
2023-01-07T17:51:41.857Z,9.14
2023-01-07T17:54:22.831Z,9.17
2023-01-07T17:56:51.389Z,9.26
2023-01-07T17:59:24.596Z,9.28
2023-01-07T18:01:55.472Z,9.41
2023-01-07T18:04:23.115Z,9.54
2023-01-07T18:06:55.415Z,9.61
2023-01-07T18:09:22.100Z,9.60
2023-01-07T18:12:08.806Z,9.61
2023-01-07T18:14:36.673Z,9.60
2023-01-07T18:17:08.796Z,9.79
2023-01-07T18:19:38.261Z,9.69
2023-01-07T18:22:10.365Z,9.79
2023-01-07T18:24:37.121Z,9.84
2023-01-07T18:27:05.157Z,9.99
2023-01-07T18:29:32.523Z,10.00
2023-01-07T18:32:11.049Z,9.95
2023-01-07T18:34:41.005Z,10.03
2023-01-07T18:37:08.576Z,10.00
2023-01-07T18:39:35.337Z,10.12
2023-01-07T18:42:03.012Z,10.17
2023-01-07T18:44:34.828Z,10.14
2023-01-07T18:47:01.350Z,10.21
2023-01-07T18:49:27.852Z,10.17
2023-01-07T18:51:57.476Z,10.18
2023-01-07T18:54:25.152Z,10.18
2023-01-07T18:56:51.954Z,10.15
2023-01-07T18:59:22.691Z,10.14
2023-01-07T19:01:53.632Z,10.18
2023-01-07T19:04:26.206Z,10.18
2023-01-07T19:06:58.775Z,10.19
2023-01-07T19:09:26.830Z,10.07
2023-01-07T19:11:59.335Z,10.01
2023-01-07T19:14:28.760Z,9.90
2023-01-07T19:16:57.467Z,9.86
2023-01-07T19:19:32.042Z,9.85
2023-01-07T19:22:05.127Z,9.86
2023-01-07T19:24:33.125Z,9.75
2023-01-07T19:27:02.763Z,9.89
2023-01-07T19:29:32.470Z,9.80
2023-01-07T19:32:07.234Z,9.81
2023-01-07T19:34:38.037Z,9.86
2023-01-07T19:37:05.085Z,9.94
2023-01-07T19:39:31.799Z,9.87
2023-01-07T19:42:01.123Z,9.98
2023-01-07T19:44:27.688Z,10.10
2023-01-07T19:47:04.372Z,10.15
2023-01-07T19:49:46.863Z,10.13
2023-01-07T19:52:14.783Z,10.14
2023-01-07T19:54:46.093Z,10.00
2023-01-07T19:57:13.397Z,10.01
2023-01-07T19:59:40.319Z,10.08
2023-01-07T20:02:14.272Z,10.07
2023-01-07T20:04:42.858Z,10.02
2023-01-07T20:07:10.266Z,10.02
2023-01-07T20:09:41.843Z,10.01
2023-01-07T20:15:01.109Z,9.97
2023-01-07T20:17:28.275Z,10.03
2023-01-07T20:22:41.631Z,10.13
2023-01-07T20:25:10.182Z,9.99
2023-01-07T20:27:42.675Z,9.97
2023-01-07T20:30:13.925Z,10.09
2023-01-07T20:32:42.292Z,10.03
2023-01-07T20:35:09.284Z,10.08
2023-01-07T20:37:48.436Z,10.13
2023-01-07T20:40:15.400Z,10.11
2023-01-07T20:42:44.463Z,10.13
2023-01-07T20:45:11.578Z,10.17
2023-01-07T20:47:42.870Z,10.14
2023-01-07T20:50:18.766Z,10.10
2023-01-07T20:52:48.057Z,10.16
2023-01-07T20:55:15.630Z,10.21
2023-01-07T20:57:42.238Z,10.33
2023-01-07T21:00:09.925Z,10.28
2023-01-07T21:02:37.534Z,10.43
2023-01-07T21:05:06.114Z,10.47
2023-01-07T21:07:32.704Z,10.44
2023-01-07T21:09:59.240Z,10.50
2023-01-07T21:12:26.022Z,10.48
2023-01-07T21:14:53.190Z,10.46
2023-01-07T21:17:19.727Z,10.42
2023-01-07T21:19:46.265Z,10.41
2023-01-07T21:22:12.817Z,10.41
2023-01-07T21:24:40.400Z,10.40
2023-01-07T21:27:06.966Z,10.35
2023-01-07T21:29:33.497Z,10.35
2023-01-07T21:32:03.280Z,10.35
2023-01-07T21:34:30.230Z,10.36
2023-01-07T21:36:57.256Z,10.39
2023-01-07T21:39:23.837Z,10.40
2023-01-07T21:41:50.398Z,10.36
2023-01-07T21:44:17.138Z,10.38
2023-01-07T21:46:43.603Z,10.42
2023-01-07T21:49:10.273Z,10.37
2023-01-07T21:51:36.901Z,10.37
2023-01-07T21:54:03.613Z,10.39
2023-01-07T21:56:32.914Z,10.40
2023-01-07T21:59:00.875Z,10.32
2023-01-07T22:01:29.137Z,10.42
2023-01-07T22:03:58.719Z,10.46
2023-01-07T22:06:29.096Z,10.42
2023-01-07T22:08:58.151Z,10.41
2023-01-07T22:11:26.188Z,10.34
2023-01-07T22:14:14.106Z,10.16
2023-01-07T22:16:40.771Z,9.13
2023-01-07T22:19:07.347Z,8.56
2023-01-07T22:21:34.103Z,8.20
2023-01-07T22:24:01.033Z,7.90
2023-01-07T22:26:27.572Z,7.83
2023-01-07T22:28:56.806Z,7.85
2023-01-07T22:31:26.451Z,8.16
2023-01-07T22:33:53.801Z,8.45
2023-01-07T22:36:34.485Z,8.62
2023-01-07T22:39:04.853Z,8.65
2023-01-07T22:41:34.001Z,8.65
2023-01-07T22:44:06.115Z,8.66
2023-01-07T22:46:36.787Z,8.61
2023-01-07T22:49:03.292Z,8.59
2023-01-07T22:51:38.810Z,8.61
2023-01-07T22:54:05.997Z,8.61
2023-01-07T22:56:33.333Z,8.60
2023-01-07T22:58:59.926Z,8.61
2023-01-07T23:01:26.556Z,8.61
2023-01-07T23:03:53.132Z,8.61
2023-01-07T23:06:19.703Z,8.53
2023-01-07T23:08:46.218Z,8.54
2023-01-07T23:11:32.739Z,8.57
2023-01-07T23:13:59.935Z,8.51
2023-01-07T23:16:26.578Z,8.53
2023-01-07T23:18:53.129Z,8.57
2023-01-07T23:21:19.717Z,8.61
2023-01-07T23:23:46.255Z,8.62
2023-01-07T23:26:13.954Z,8.67
2023-01-07T23:28:40.965Z,8.64
2023-01-07T23:31:07.599Z,8.60
2023-01-07T23:33:34.089Z,8.61
2023-01-07T23:36:04.724Z,8.57
2023-01-07T23:38:32.076Z,8.52
2023-01-07T23:41:09.054Z,8.44
2023-01-07T23:43:36.236Z,8.41
2023-01-07T23:46:04.758Z,8.40
2023-01-07T23:48:32.949Z,8.34
2023-01-07T23:51:19.899Z,8.31
2023-01-07T23:53:46.880Z,8.32
2023-01-07T23:56:14.320Z,8.28
2023-01-07T23:58:40.881Z,8.25
